sensor_id;sensor_type;location;lat;lon;timestamp;pressure;altitude;pressure_sealevel;temperature;humidity
65872;BME280;52653;50.080;21.992;2023-10-31T00:00:36;98142.33;;;16.26;66.98
65872;BME280;52653;50.080;21.992;2023-10-31T00:03:34;98139.04;;;16.24;66.88
65872;BME280;52653;50.080;21.992;2023-10-31T00:06:12;98142.29;;;16.23;66.46
65872;BME280;52653;50.080;21.992;2023-10-31T00:09:05;98144.42;;;16.22;66.27
65872;BME280;52653;50.080;21.992;2023-10-31T00:11:58;98144.23;;;16.23;66.62
65872;BME280;52653;50.080;21.992;2023-10-31T00:14:43;98138.07;;;16.22;66.10
65872;BME280;52653;50.080;21.992;2023-10-31T00:17:36;98137.90;;;16.22;66.04
65872;BME280;52653;50.080;21.992;2023-10-31T00:20:29;98131.46;;;16.20;65.82
65872;BME280;52653;50.080;21.992;2023-10-31T00:23:12;98128.20;;;16.18;66.07
65872;BME280;52653;50.080;21.992;2023-10-31T00:26:05;98118.45;;;16.15;66.30
65872;BME280;52653;50.080;21.992;2023-10-31T00:28:50;98105.86;;;16.11;66.14
65872;BME280;52653;50.080;21.992;2023-10-31T00:31:46;98094.55;;;16.08;65.78
65872;BME280;52653;50.080;21.992;2023-10-31T00:34:39;98093.63;;;16.08;65.73
65872;BME280;52653;50.080;21.992;2023-10-31T00:37:32;98091.24;;;16.10;66.10
65872;BME280;52653;50.080;21.992;2023-10-31T00:40:24;98091.80;;;16.09;65.80
65872;BME280;52653;50.080;21.992;2023-10-31T00:43:16;98091.41;;;16.10;65.92
65872;BME280;52653;50.080;21.992;2023-10-31T00:46:01;98084.92;;;16.09;66.02
65872;BME280;52653;50.080;21.992;2023-10-31T00:48:54;98081.17;;;16.10;65.96
65872;BME280;52653;50.080;21.992;2023-10-31T00:51:49;98081.04;;;16.09;66.18
65872;BME280;52653;50.080;21.992;2023-10-31T00:54:43;98080.10;;;16.06;66.01
65872;BME280;52653;50.080;21.992;2023-10-31T00:57:25;98084.25;;;16.05;66.22
65872;BME280;52653;50.080;21.992;2023-10-31T01:00:11;98081.35;;;16.03;66.38
65872;BME280;52653;50.080;21.992;2023-10-31T01:02:47;98083.52;;;16.02;66.34
65872;BME280;52653;50.080;21.992;2023-10-31T01:05:35;98081.58;;;16.02;66.32
65872;BME280;52653;50.080;21.992;2023-10-31T01:08:27;98076.02;;;16.03;66.28
65872;BME280;52653;50.080;21.992;2023-10-31T01:11:21;98070.47;;;16.05;66.11
65872;BME280;52653;50.080;21.992;2023-10-31T01:14:14;98062.63;;;16.05;66.16
65872;BME280;52653;50.080;21.992;2023-10-31T01:17:06;98063.35;;;16.05;66.37
65872;BME280;52653;50.080;21.992;2023-10-31T01:19:59;98062.89;;;16.04;66.19
65872;BME280;52653;50.080;21.992;2023-10-31T01:22:52;98066.04;;;16.05;66.30
65872;BME280;52653;50.080;21.992;2023-10-31T01:25:45;98065.70;;;16.05;66.16
65872;BME280;52653;50.080;21.992;2023-10-31T01:28:38;98056.97;;;16.06;66.20
65872;BME280;52653;50.080;21.992;2023-10-31T01:31:29;98054.16;;;16.05;66.30
65872;BME280;52653;50.080;21.992;2023-10-31T01:34:29;98052.66;;;16.03;66.08
65872;BME280;52653;50.080;21.992;2023-10-31T01:37:22;98042.66;;;16.02;65.79
65872;BME280;52653;50.080;21.992;2023-10-31T01:40:15;98032.66;;;16.00;66.03
65872;BME280;52653;50.080;21.992;2023-10-31T01:43:08;98030.14;;;15.97;65.91
65872;BME280;52653;50.080;21.992;2023-10-31T01:46:01;98026.88;;;15.95;66.01
65872;BME280;52653;50.080;21.992;2023-10-31T01:48:43;98019.87;;;15.94;65.71
65872;BME280;52653;50.080;21.992;2023-10-31T01:51:39;98014.23;;;15.94;65.47
65872;BME280;52653;50.080;21.992;2023-10-31T01:54:33;98016.84;;;15.94;65.19
65872;BME280;52653;50.080;21.992;2023-10-31T01:57:27;98008.39;;;15.97;64.60
65872;BME280;52653;50.080;21.992;2023-10-31T02:00:20;97995.27;;;16.02;64.35
65872;BME280;52653;50.080;21.992;2023-10-31T02:03:17;97988.24;;;16.07;63.63
65872;BME280;52653;50.080;21.992;2023-10-31T02:06:10;97982.89;;;16.12;63.41
65872;BME280;52653;50.080;21.992;2023-10-31T02:09:04;97984.96;;;16.17;62.63
65872;BME280;52653;50.080;21.992;2023-10-31T02:11:57;97981.55;;;16.21;62.54
65872;BME280;52653;50.080;21.992;2023-10-31T02:14:51;97982.80;;;16.24;62.31
65872;BME280;52653;50.080;21.992;2023-10-31T02:17:44;97977.15;;;16.28;61.84
65872;BME280;52653;50.080;21.992;2023-10-31T02:20:38;97973.86;;;16.33;60.55
65872;BME280;52653;50.080;21.992;2023-10-31T02:23:22;97970.76;;;16.38;60.39
65872;BME280;52653;50.080;21.992;2023-10-31T02:26:14;97972.30;;;16.46;59.50
65872;BME280;52653;50.080;21.992;2023-10-31T02:29:09;97964.88;;;16.57;58.73
65872;BME280;52653;50.080;21.992;2023-10-31T02:32:02;97961.09;;;16.65;57.99
65872;BME280;52653;50.080;21.992;2023-10-31T02:34:57;97958.33;;;16.70;57.35
65872;BME280;52653;50.080;21.992;2023-10-31T02:37:50;97956.58;;;16.77;56.91
65872;BME280;52653;50.080;21.992;2023-10-31T02:40:38;97955.49;;;16.84;56.22
65872;BME280;52653;50.080;21.992;2023-10-31T02:43:31;97959.89;;;16.91;55.48
65872;BME280;52653;50.080;21.992;2023-10-31T02:46:25;97952.67;;;17.00;54.84
65872;BME280;52653;50.080;21.992;2023-10-31T02:49:18;97947.66;;;17.04;54.64
65872;BME280;52653;50.080;21.992;2023-10-31T02:52:12;97933.64;;;17.08;53.90
65872;BME280;52653;50.080;21.992;2023-10-31T02:55:05;97930.87;;;17.10;54.66
65872;BME280;52653;50.080;21.992;2023-10-31T02:58:00;97934.12;;;17.09;54.18
65872;BME280;52653;50.080;21.992;2023-10-31T03:00:52;97937.31;;;17.09;54.06
65872;BME280;52653;50.080;21.992;2023-10-31T03:03:45;97939.86;;;17.08;53.78
65872;BME280;52653;50.080;21.992;2023-10-31T03:06:23;97925.98;;;17.09;53.31
65872;BME280;52653;50.080;21.992;2023-10-31T03:09:16;97928.66;;;17.12;52.57
65872;BME280;52653;50.080;21.992;2023-10-31T03:12:09;97922.25;;;17.16;52.56
65872;BME280;52653;50.080;21.992;2023-10-31T03:15:06;97922.33;;;17.18;52.53
65872;BME280;52653;50.080;21.992;2023-10-31T03:17:47;97924.56;;;17.19;51.77
65872;BME280;52653;50.080;21.992;2023-10-31T03:20:40;97921.85;;;17.20;51.86
65872;BME280;52653;50.080;21.992;2023-10-31T03:23:32;97920.33;;;17.18;52.13
65872;BME280;52653;50.080;21.992;2023-10-31T03:26:24;97926.10;;;17.17;52.24
65872;BME280;52653;50.080;21.992;2023-10-31T03:29:17;97924.78;;;17.15;51.89
65872;BME280;52653;50.080;21.992;2023-10-31T03:32:11;97928.30;;;17.15;51.63
65872;BME280;52653;50.080;21.992;2023-10-31T03:35:05;97915.48;;;17.16;51.60
65872;BME280;52653;50.080;21.992;2023-10-31T03:37:58;97907.13;;;17.17;51.07
65872;BME280;52653;50.080;21.992;2023-10-31T03:40:51;97912.95;;;17.20;51.09
65872;BME280;52653;50.080;21.992;2023-10-31T03:43:37;97907.95;;;17.21;51.06
65872;BME280;52653;50.080;21.992;2023-10-31T03:46:30;97901.60;;;17.24;51.23
65872;BME280;52653;50.080;21.992;2023-10-31T03:49:24;97898.86;;;17.22;51.07
65872;BME280;52653;50.080;21.992;2023-10-31T03:52:17;97897.33;;;17.21;50.66
65872;BME280;52653;50.080;21.992;2023-10-31T03:55:11;97895.38;;;17.21;50.59
65872;BME280;52653;50.080;21.992;2023-10-31T03:58:04;97900.74;;;17.23;50.79
65872;BME280;52653;50.080;21.992;2023-10-31T04:00:42;97891.32;;;17.24;50.79
65872;BME280;52653;50.080;21.992;2023-10-31T04:03:34;97888.43;;;17.24;50.91
65872;BME280;52653;50.080;21.992;2023-10-31T04:06:27;97885.38;;;17.25;50.73
65872;BME280;52653;50.080;21.992;2023-10-31T04:09:20;97880.18;;;17.26;50.60
65872;BME280;52653;50.080;21.992;2023-10-31T04:12:13;97877.39;;;17.25;51.00
65872;BME280;52653;50.080;21.992;2023-10-31T04:15:10;97864.55;;;17.24;51.05
65872;BME280;52653;50.080;21.992;2023-10-31T04:18:05;97861.66;;;17.21;51.05
65872;BME280;52653;50.080;21.992;2023-10-31T04:20:57;97857.19;;;17.20;51.07
65872;BME280;52653;50.080;21.992;2023-10-31T04:23:50;97850.91;;;17.21;50.27
65872;BME280;52653;50.080;21.992;2023-10-31T04:26:42;97846.24;;;17.22;51.06
65872;BME280;52653;50.080;21.992;2023-10-31T04:29:36;97843.98;;;17.21;50.43
65872;BME280;52653;50.080;21.992;2023-10-31T04:32:28;97840.06;;;17.21;50.58
65872;BME280;52653;50.080;21.992;2023-10-31T04:35:14;97837.92;;;17.22;50.89
65872;BME280;52653;50.080;21.992;2023-10-31T04:38:07;97842.41;;;17.20;50.42
65872;BME280;52653;50.080;21.992;2023-10-31T04:40:53;97841.27;;;17.22;50.19
65872;BME280;52653;50.080;21.992;2023-10-31T04:43:45;97845.14;;;17.23;50.04
65872;BME280;52653;50.080;21.992;2023-10-31T04:46:21;97849.48;;;17.24;49.93
65872;BME280;52653;50.080;21.992;2023-10-31T04:49:04;97845.05;;;17.27;49.90
65872;BME280;52653;50.080;21.992;2023-10-31T04:51:51;97849.69;;;17.30;49.90
65872;BME280;52653;50.080;21.992;2023-10-31T04:54:44;97844.98;;;17.31;50.26
65872;BME280;52653;50.080;21.992;2023-10-31T04:57:39;97839.35;;;17.31;50.27
65872;BME280;52653;50.080;21.992;2023-10-31T05:00:32;97833.38;;;17.30;50.31
65872;BME280;52653;50.080;21.992;2023-10-31T05:03:25;97832.45;;;17.28;50.54
65872;BME280;52653;50.080;21.992;2023-10-31T05:06:21;97838.42;;;17.25;50.25
65872;BME280;52653;50.080;21.992;2023-10-31T05:09:15;97830.67;;;17.24;50.23
65872;BME280;52653;50.080;21.992;2023-10-31T05:12:10;97830.17;;;17.24;50.17
65872;BME280;52653;50.080;21.992;2023-10-31T05:15:04;97829.47;;;17.23;50.23
65872;BME280;52653;50.080;21.992;2023-10-31T05:17:57;97821.91;;;17.22;50.17
65872;BME280;52653;50.080;21.992;2023-10-31T05:20:51;97817.11;;;17.23;50.09
65872;BME280;52653;50.080;21.992;2023-10-31T05:23:36;97819.80;;;17.22;50.03
65872;BME280;52653;50.080;21.992;2023-10-31T05:26:29;97824.56;;;17.23;49.86
65872;BME280;52653;50.080;21.992;2023-10-31T05:29:24;97832.81;;;17.24;50.08
65872;BME280;52653;50.080;21.992;2023-10-31T05:32:19;97833.64;;;17.25;49.86
65872;BME280;52653;50.080;21.992;2023-10-31T05:35:12;97843.48;;;17.27;49.92
65872;BME280;52653;50.080;21.992;2023-10-31T05:37:52;97845.43;;;17.26;49.83
65872;BME280;52653;50.080;21.992;2023-10-31T05:40:46;97848.93;;;17.28;49.49
65872;BME280;52653;50.080;21.992;2023-10-31T05:43:32;97851.08;;;17.30;49.49
65872;BME280;52653;50.080;21.992;2023-10-31T05:46:19;97846.52;;;17.33;49.81
65872;BME280;52653;50.080;21.992;2023-10-31T05:49:12;97854.61;;;17.34;49.41
65872;BME280;52653;50.080;21.992;2023-10-31T05:52:05;97860.83;;;17.33;50.13
65872;BME280;52653;50.080;21.992;2023-10-31T05:54:58;97862.84;;;17.32;49.80
65872;BME280;52653;50.080;21.992;2023-10-31T05:57:46;97870.92;;;17.30;49.73
65872;BME280;52653;50.080;21.992;2023-10-31T06:00:40;97877.05;;;17.28;50.39
65872;BME280;52653;50.080;21.992;2023-10-31T06:03:23;97878.38;;;17.27;50.12
65872;BME280;52653;50.080;21.992;2023-10-31T06:06:09;97882.70;;;17.25;50.31
65872;BME280;52653;50.080;21.992;2023-10-31T06:09:01;97892.46;;;17.25;50.34
65872;BME280;52653;50.080;21.992;2023-10-31T06:11:55;97892.55;;;17.24;50.22
65872;BME280;52653;50.080;21.992;2023-10-31T06:14:48;97889.77;;;17.23;50.38
65872;BME280;52653;50.080;21.992;2023-10-31T06:17:41;97886.43;;;17.22;50.30
65872;BME280;52653;50.080;21.992;2023-10-31T06:20:34;97884.13;;;17.22;49.88
65872;BME280;52653;50.080;21.992;2023-10-31T06:23:27;97887.77;;;17.24;50.06
65872;BME280;52653;50.080;21.992;2023-10-31T06:26:23;97882.80;;;17.24;50.27
65872;BME280;52653;50.080;21.992;2023-10-31T06:29:15;97879.96;;;17.24;49.81
65872;BME280;52653;50.080;21.992;2023-10-31T06:32:21;97879.77;;;17.24;50.11
65872;BME280;52653;50.080;21.992;2023-10-31T06:35:14;97882.88;;;17.25;49.49
65872;BME280;52653;50.080;21.992;2023-10-31T06:38:09;97876.15;;;17.29;49.66
65872;BME280;52653;50.080;21.992;2023-10-31T06:41:02;97875.29;;;17.31;49.69
65872;BME280;52653;50.080;21.992;2023-10-31T06:43:55;97876.80;;;17.33;49.25
65872;BME280;52653;50.080;21.992;2023-10-31T06:46:49;97878.02;;;17.33;49.30
65872;BME280;52653;50.080;21.992;2023-10-31T06:49:42;97877.96;;;17.34;49.30
65872;BME280;52653;50.080;21.992;2023-10-31T06:52:28;97872.06;;;17.35;49.65
65872;BME280;52653;50.080;21.992;2023-10-31T06:55:21;97868.59;;;17.34;49.51
65872;BME280;52653;50.080;21.992;2023-10-31T06:58:17;97867.14;;;17.31;49.41
65872;BME280;52653;50.080;21.992;2023-10-31T07:01:02;97858.67;;;17.30;49.63
65872;BME280;52653;50.080;21.992;2023-10-31T07:03:55;97865.42;;;17.31;49.86
65872;BME280;52653;50.080;21.992;2023-10-31T07:06:48;97868.83;;;17.30;49.67
65872;BME280;52653;50.080;21.992;2023-10-31T07:09:46;97884.41;;;17.30;49.50
65872;BME280;52653;50.080;21.992;2023-10-31T07:12:40;97891.05;;;17.32;49.48
65872;BME280;52653;50.080;21.992;2023-10-31T07:15:33;97897.74;;;17.32;49.48
65872;BME280;52653;50.080;21.992;2023-10-31T07:18:46;97897.53;;;17.33;49.41
65872;BME280;52653;50.080;21.992;2023-10-31T07:21:39;97892.61;;;17.32;49.55
65872;BME280;52653;50.080;21.992;2023-10-31T07:24:32;97891.34;;;17.30;49.74
65872;BME280;52653;50.080;21.992;2023-10-31T07:27:27;97883.56;;;17.29;49.24
65872;BME280;52653;50.080;21.992;2023-10-31T07:30:20;97872.67;;;17.31;49.43
65872;BME280;52653;50.080;21.992;2023-10-31T07:33:06;97870.34;;;17.31;49.40
65872;BME280;52653;50.080;21.992;2023-10-31T07:35:59;97866.71;;;17.33;49.16
65872;BME280;52653;50.080;21.992;2023-10-31T07:38:52;97862.65;;;17.35;49.26
65872;BME280;52653;50.080;21.992;2023-10-31T07:41:39;97867.64;;;17.35;49.44
65872;BME280;52653;50.080;21.992;2023-10-31T07:44:32;97862.02;;;17.34;49.55
65872;BME280;52653;50.080;21.992;2023-10-31T07:47:27;97855.66;;;17.33;49.49
65872;BME280;52653;50.080;21.992;2023-10-31T07:50:11;97848.41;;;17.33;49.96
65872;BME280;52653;50.080;21.992;2023-10-31T07:52:58;97849.91;;;17.32;49.95
65872;BME280;52653;50.080;21.992;2023-10-31T07:55:51;97843.92;;;17.31;49.70
65872;BME280;52653;50.080;21.992;2023-10-31T07:58:44;97838.23;;;17.31;49.99
65872;BME280;52653;50.080;21.992;2023-10-31T08:01:37;97828.13;;;17.32;49.81
65872;BME280;52653;50.080;21.992;2023-10-31T08:04:30;97832.61;;;17.34;49.99
65872;BME280;52653;50.080;21.992;2023-10-31T08:07:23;97831.58;;;17.36;50.10
65872;BME280;52653;50.080;21.992;2023-10-31T08:10:16;97831.93;;;17.40;50.34
65872;BME280;52653;50.080;21.992;2023-10-31T08:13:09;97828.01;;;17.43;50.18
65872;BME280;52653;50.080;21.992;2023-10-31T08:16:00;97821.95;;;17.47;50.26
65872;BME280;52653;50.080;21.992;2023-10-31T08:18:57;97823.09;;;17.51;50.13
65872;BME280;52653;50.080;21.992;2023-10-31T08:21:49;97821.86;;;17.54;50.34
65872;BME280;52653;50.080;21.992;2023-10-31T08:24:42;97830.02;;;17.57;50.35
65872;BME280;52653;50.080;21.992;2023-10-31T08:27:25;97839.38;;;17.61;50.20
65872;BME280;52653;50.080;21.992;2023-10-31T08:30:20;97846.59;;;17.65;50.57
65872;BME280;52653;50.080;21.992;2023-10-31T08:33:13;97849.11;;;17.68;50.53
65872;BME280;52653;50.080;21.992;2023-10-31T08:36:09;97861.95;;;17.70;50.86
65872;BME280;52653;50.080;21.992;2023-10-31T08:39:02;97849.36;;;17.73;50.80
65872;BME280;52653;50.080;21.992;2023-10-31T08:41:55;97834.74;;;17.74;50.63
65872;BME280;52653;50.080;21.992;2023-10-31T08:44:29;97835.20;;;17.75;50.70
65872;BME280;52653;50.080;21.992;2023-10-31T08:47:02;97830.85;;;17.77;50.97
65872;BME280;52653;50.080;21.992;2023-10-31T08:49:35;97825.12;;;17.78;50.59
65872;BME280;52653;50.080;21.992;2023-10-31T08:52:08;97815.16;;;17.79;50.89
65872;BME280;52653;50.080;21.992;2023-10-31T08:54:52;97809.07;;;17.80;50.92
65872;BME280;52653;50.080;21.992;2023-10-31T08:57:45;97805.38;;;17.82;50.99
65872;BME280;52653;50.080;21.992;2023-10-31T09:00:22;97800.40;;;17.85;51.01
65872;BME280;52653;50.080;21.992;2023-10-31T09:03:15;97782.88;;;17.87;50.63
65872;BME280;52653;50.080;21.992;2023-10-31T09:05:51;97771.68;;;17.87;50.77
65872;BME280;52653;50.080;21.992;2023-10-31T09:08:27;97761.95;;;17.87;50.55
65872;BME280;52653;50.080;21.992;2023-10-31T09:11:20;97770.77;;;17.85;50.59
65872;BME280;52653;50.080;21.992;2023-10-31T09:13:58;97779.62;;;17.83;50.59
65872;BME280;52653;50.080;21.992;2023-10-31T09:16:41;97784.20;;;17.80;50.84
65872;BME280;52653;50.080;21.992;2023-10-31T09:19:14;97805.82;;;17.77;50.98
65872;BME280;52653;50.080;21.992;2023-10-31T09:21:57;97818.83;;;17.76;50.78
65872;BME280;52653;50.080;21.992;2023-10-31T09:24:50;97812.45;;;17.79;50.80
65872;BME280;52653;50.080;21.992;2023-10-31T09:27:43;97814.90;;;17.83;50.94
65872;BME280;52653;50.080;21.992;2023-10-31T09:30:36;97815.09;;;17.88;51.26
65872;BME280;52653;50.080;21.992;2023-10-31T09:33:19;97809.33;;;17.93;51.13
65872;BME280;52653;50.080;21.992;2023-10-31T09:36:07;97801.84;;;17.96;51.15
65872;BME280;52653;50.080;21.992;2023-10-31T09:39:02;97790.16;;;18.02;50.98
65872;BME280;52653;50.080;21.992;2023-10-31T09:41:37;97795.74;;;18.03;50.55
65872;BME280;52653;50.080;21.992;2023-10-31T09:44:15;97797.27;;;18.07;51.17
65872;BME280;52653;50.080;21.992;2023-10-31T09:46:56;97788.59;;;18.16;51.23
65872;BME280;52653;50.080;21.992;2023-10-31T09:49:39;97768.33;;;18.28;50.76
65872;BME280;52653;50.080;21.992;2023-10-31T09:52:35;97755.04;;;18.50;50.55
65872;BME280;52653;50.080;21.992;2023-10-31T09:55:09;97752.64;;;18.74;50.57
65872;BME280;52653;50.080;21.992;2023-10-31T09:58:02;97751.81;;;18.98;50.24
65872;BME280;52653;50.080;21.992;2023-10-31T10:00:57;97757.59;;;19.18;50.21
65872;BME280;52653;50.080;21.992;2023-10-31T10:03:50;97768.72;;;19.30;49.33
65872;BME280;52653;50.080;21.992;2023-10-31T10:06:53;97768.77;;;19.40;49.01
65872;BME280;52653;50.080;21.992;2023-10-31T10:09:51;97774.47;;;19.54;48.69
65872;BME280;52653;50.080;21.992;2023-10-31T10:12:44;97775.52;;;19.64;48.88
65872;BME280;52653;50.080;21.992;2023-10-31T10:15:47;97767.38;;;19.72;48.24
65872;BME280;52653;50.080;21.992;2023-10-31T10:18:41;97766.50;;;19.77;48.48
65872;BME280;52653;50.080;21.992;2023-10-31T10:21:47;97770.41;;;19.82;48.59
65872;BME280;52653;50.080;21.992;2023-10-31T10:24:44;97758.52;;;19.87;48.75
65872;BME280;52653;50.080;21.992;2023-10-31T10:27:37;97759.46;;;19.94;48.81
65872;BME280;52653;50.080;21.992;2023-10-31T10:30:36;97763.75;;;19.99;48.88
65872;BME280;52653;50.080;21.992;2023-10-31T10:33:29;97763.59;;;20.06;49.10
65872;BME280;52653;50.080;21.992;2023-10-31T10:36:23;97757.47;;;20.12;48.73
65872;BME280;52653;50.080;21.992;2023-10-31T10:39:20;97765.46;;;20.17;48.86
65872;BME280;52653;50.080;21.992;2023-10-31T10:42:18;97766.29;;;20.21;48.74
65872;BME280;52653;50.080;21.992;2023-10-31T10:45:12;97766.95;;;20.19;49.31
65872;BME280;52653;50.080;21.992;2023-10-31T10:48:12;97766.52;;;20.23;49.35
65872;BME280;52653;50.080;21.992;2023-10-31T10:51:10;97765.02;;;20.26;48.81
65872;BME280;52653;50.080;21.992;2023-10-31T10:54:11;97763.38;;;20.32;48.61
65872;BME280;52653;50.080;21.992;2023-10-31T10:57:14;97764.77;;;20.43;49.22
65872;BME280;52653;50.080;21.992;2023-10-31T11:00:11;97758.21;;;20.47;48.77
65872;BME280;52653;50.080;21.992;2023-10-31T11:03:07;97755.98;;;20.44;48.62
65872;BME280;52653;50.080;21.992;2023-10-31T11:05:50;97764.72;;;20.33;48.75
65872;BME280;52653;50.080;21.992;2023-10-31T11:08:48;97753.95;;;20.24;49.34
65872;BME280;52653;50.080;21.992;2023-10-31T11:11:42;97753.70;;;20.28;49.83
65872;BME280;52653;50.080;21.992;2023-10-31T11:14:41;97748.83;;;20.39;50.16
65872;BME280;52653;50.080;21.992;2023-10-31T11:17:37;97748.66;;;20.47;50.03
65872;BME280;52653;50.080;21.992;2023-10-31T11:20:30;97745.83;;;20.46;49.63
65872;BME280;52653;50.080;21.992;2023-10-31T11:23:11;97740.80;;;20.42;49.98
65872;BME280;52653;50.080;21.992;2023-10-31T11:25:56;97734.51;;;20.32;50.13
65872;BME280;52653;50.080;21.992;2023-10-31T11:28:41;97737.67;;;20.28;50.52
65872;BME280;52653;50.080;21.992;2023-10-31T11:31:34;97738.60;;;20.24;50.41
65872;BME280;52653;50.080;21.992;2023-10-31T11:34:29;97733.19;;;20.23;50.79
65872;BME280;52653;50.080;21.992;2023-10-31T11:37:24;97729.58;;;20.26;51.11
65872;BME280;52653;50.080;21.992;2023-10-31T11:40:27;97723.75;;;20.41;50.85
65872;BME280;52653;50.080;21.992;2023-10-31T11:43:20;97721.22;;;20.62;50.73
65872;BME280;52653;50.080;21.992;2023-10-31T11:46:20;97716.58;;;20.72;50.04
65872;BME280;52653;50.080;21.992;2023-10-31T11:49:17;97707.22;;;20.68;49.58
65872;BME280;52653;50.080;21.992;2023-10-31T11:52:16;97708.48;;;20.48;49.94
65872;BME280;52653;50.080;21.992;2023-10-31T11:55:00;97708.05;;;20.24;50.47
65872;BME280;52653;50.080;21.992;2023-10-31T11:57:55;97713.16;;;20.12;50.85
65872;BME280;52653;50.080;21.992;2023-10-31T12:00:49;97715.70;;;20.06;51.06
65872;BME280;52653;50.080;21.992;2023-10-31T12:03:45;97716.05;;;20.01;51.57
65872;BME280;52653;50.080;21.992;2023-10-31T12:06:39;97709.37;;;19.97;51.70
65872;BME280;52653;50.080;21.992;2023-10-31T12:09:32;97707.98;;;19.94;51.51
65872;BME280;52653;50.080;21.992;2023-10-31T12:12:33;97716.91;;;19.91;51.56
65872;BME280;52653;50.080;21.992;2023-10-31T12:15:20;97728.63;;;19.84;52.01
65872;BME280;52653;50.080;21.992;2023-10-31T12:18:12;97725.90;;;19.75;52.44
65872;BME280;52653;50.080;21.992;2023-10-31T12:21:06;97718.73;;;19.65;53.01
65872;BME280;52653;50.080;21.992;2023-10-31T12:24:05;97721.71;;;19.58;53.20
65872;BME280;52653;50.080;21.992;2023-10-31T12:27:02;97708.02;;;19.53;53.18
65872;BME280;52653;50.080;21.992;2023-10-31T12:29:48;97711.23;;;19.49;53.49
65872;BME280;52653;50.080;21.992;2023-10-31T12:32:56;97710.59;;;19.48;54.03
65872;BME280;52653;50.080;21.992;2023-10-31T12:35:58;97712.77;;;19.48;53.69
65872;BME280;52653;50.080;21.992;2023-10-31T12:38:52;97710.46;;;19.48;54.11
65872;BME280;52653;50.080;21.992;2023-10-31T12:41:35;97707.63;;;19.50;54.18
65872;BME280;52653;50.080;21.992;2023-10-31T12:44:29;97709.90;;;19.51;53.84
65872;BME280;52653;50.080;21.992;2023-10-31T12:47:23;97702.45;;;19.53;54.20
65872;BME280;52653;50.080;21.992;2023-10-31T12:50:18;97698.05;;;19.52;53.87
65872;BME280;52653;50.080;21.992;2023-10-31T12:53:11;97699.47;;;19.52;54.16
65872;BME280;52653;50.080;21.992;2023-10-31T12:56:35;97693.81;;;19.52;53.99
65872;BME280;52653;50.080;21.992;2023-10-31T12:59:31;97690.89;;;19.48;53.83
65872;BME280;52653;50.080;21.992;2023-10-31T13:02:27;97689.83;;;19.45;54.45
65872;BME280;52653;50.080;21.992;2023-10-31T13:05:27;97691.61;;;19.45;54.79
65872;BME280;52653;50.080;21.992;2023-10-31T13:08:20;97686.23;;;19.43;54.41
65872;BME280;52653;50.080;21.992;2023-10-31T13:11:16;97691.98;;;19.42;54.40
65872;BME280;52653;50.080;21.992;2023-10-31T13:14:07;97692.42;;;19.41;54.72
65872;BME280;52653;50.080;21.992;2023-10-31T13:17:00;97690.14;;;19.40;54.49
65872;BME280;52653;50.080;21.992;2023-10-31T13:19:54;97685.83;;;19.38;55.08
65872;BME280;52653;50.080;21.992;2023-10-31T13:22:38;97687.73;;;19.31;55.03
65872;BME280;52653;50.080;21.992;2023-10-31T13:25:31;97696.82;;;19.21;55.03
65872;BME280;52653;50.080;21.992;2023-10-31T13:28:27;97699.23;;;19.09;54.96
65872;BME280;52653;50.080;21.992;2023-10-31T13:31:14;97697.48;;;18.97;55.17
65872;BME280;52653;50.080;21.992;2023-10-31T13:34:08;97703.95;;;18.88;55.39
65872;BME280;52653;50.080;21.992;2023-10-31T13:37:04;97707.97;;;18.81;55.86
65872;BME280;52653;50.080;21.992;2023-10-31T13:39:57;97702.69;;;18.77;55.82
65872;BME280;52653;50.080;21.992;2023-10-31T13:42:53;97704.89;;;18.76;56.18
65872;BME280;52653;50.080;21.992;2023-10-31T13:45:50;97698.42;;;18.80;56.11
65872;BME280;52653;50.080;21.992;2023-10-31T13:48:43;97694.23;;;18.82;56.23
65872;BME280;52653;50.080;21.992;2023-10-31T13:51:38;97688.58;;;18.85;56.28
65872;BME280;52653;50.080;21.992;2023-10-31T13:54:31;97680.61;;;18.89;56.67
65872;BME280;52653;50.080;21.992;2023-10-31T13:57:26;97675.38;;;18.93;56.74
65872;BME280;52653;50.080;21.992;2023-10-31T14:00:19;97669.27;;;18.94;56.91
65872;BME280;52653;50.080;21.992;2023-10-31T14:03:15;97673.04;;;18.88;56.94
65872;BME280;52653;50.080;21.992;2023-10-31T14:06:08;97679.47;;;18.85;57.02
65872;BME280;52653;50.080;21.992;2023-10-31T14:09:03;97685.70;;;18.85;57.34
65872;BME280;52653;50.080;21.992;2023-10-31T14:11:58;97682.85;;;18.79;57.24
65872;BME280;52653;50.080;21.992;2023-10-31T14:14:46;97682.64;;;18.69;56.86
65872;BME280;52653;50.080;21.992;2023-10-31T14:17:43;97670.41;;;18.54;57.30
65872;BME280;52653;50.080;21.992;2023-10-31T14:20:37;97668.88;;;18.42;57.35
65872;BME280;52653;50.080;21.992;2023-10-31T14:23:30;97662.92;;;18.30;57.82
65872;BME280;52653;50.080;21.992;2023-10-31T14:26:24;97648.70;;;18.16;58.01
65872;BME280;52653;50.080;21.992;2023-10-31T14:29:18;97646.61;;;18.02;58.49
65872;BME280;52653;50.080;21.992;2023-10-31T14:32:10;97655.19;;;17.89;58.64
65872;BME280;52653;50.080;21.992;2023-10-31T14:35:04;97649.30;;;17.79;58.98
65872;BME280;52653;50.080;21.992;2023-10-31T14:37:49;97633.29;;;17.68;59.12
65872;BME280;52653;50.080;21.992;2023-10-31T14:40:34;97636.33;;;17.58;59.63
65872;BME280;52653;50.080;21.992;2023-10-31T14:43:29;97636.15;;;17.47;60.08
65872;BME280;52653;50.080;21.992;2023-10-31T14:46:24;97630.50;;;17.35;60.39
65872;BME280;52653;50.080;21.992;2023-10-31T14:49:06;97624.70;;;17.25;60.64
65872;BME280;52653;50.080;21.992;2023-10-31T14:51:58;97631.52;;;17.18;60.87
65872;BME280;52653;50.080;21.992;2023-10-31T14:54:52;97635.62;;;17.12;61.24
65872;BME280;52653;50.080;21.992;2023-10-31T14:57:37;97633.55;;;17.05;61.52